createdAt,value
2019-04-06T00:00:42.608Z,11.93
2019-04-06T00:03:52.000Z,13.20
2019-04-06T00:06:59.783Z,12.50
2019-04-06T00:10:08.641Z,12.80
2019-04-06T00:13:16.140Z,12.87
2019-04-06T00:16:23.539Z,12.00
2019-04-06T00:19:31.893Z,11.90
2019-04-06T00:22:40.185Z,12.53
2019-04-06T00:25:47.468Z,12.77
2019-04-06T00:28:54.949Z,12.43
2019-04-06T00:32:13.161Z,12.57
2019-04-06T00:35:20.881Z,11.77
2019-04-06T00:38:28.357Z,11.33
2019-04-06T00:41:35.925Z,13.30
2019-04-06T00:44:43.242Z,12.87
2019-04-06T00:47:50.648Z,13.33
2019-04-06T00:50:58.408Z,12.10
2019-04-06T00:54:05.979Z,10.70
2019-04-06T00:57:13.391Z,12.40
2019-04-06T01:00:20.972Z,11.93
2019-04-06T01:03:28.252Z,12.67
2019-04-06T01:06:35.974Z,12.23
2019-04-06T01:09:43.488Z,11.07
2019-04-06T01:12:50.920Z,12.40
2019-04-06T01:15:58.867Z,11.80
2019-04-06T01:19:06.669Z,11.70
2019-04-06T01:22:14.094Z,12.60
2019-04-06T01:25:21.972Z,12.07
2019-04-06T01:28:29.476Z,12.03
2019-04-06T01:31:37.322Z,11.93
2019-04-06T01:34:44.746Z,12.00
2019-04-06T01:37:52.630Z,12.03
2019-04-06T01:41:00.479Z,12.13
2019-04-06T01:44:07.763Z,11.33
2019-04-06T01:47:15.448Z,12.40
2019-04-06T01:50:23.085Z,11.50
2019-04-06T01:53:30.643Z,11.27
2019-04-06T01:56:37.924Z,12.87
2019-04-06T01:59:45.519Z,12.60
2019-04-06T02:02:53.363Z,11.27
2019-04-06T02:06:01.787Z,12.20
2019-04-06T02:09:09.588Z,11.93
2019-04-06T02:12:16.984Z,12.10
2019-04-06T02:15:24.821Z,12.03
2019-04-06T02:18:32.081Z,10.77
2019-04-06T02:21:39.459Z,11.60
2019-04-06T02:24:46.739Z,11.73
2019-04-06T02:27:54.231Z,11.63
2019-04-06T02:31:06.543Z,12.03
2019-04-06T02:34:28.515Z,12.70
2019-04-06T02:38:00.708Z,12.90
2019-04-06T02:41:13.524Z,11.37
2019-04-06T02:44:20.901Z,12.20
2019-04-06T02:47:28.443Z,12.03
2019-04-06T02:50:36.465Z,12.30
2019-04-06T02:53:43.990Z,11.90
2019-04-06T02:56:51.366Z,12.83
2019-04-06T02:59:59.151Z,13.30
2019-04-06T03:03:06.756Z,11.90
2019-04-06T03:06:14.565Z,11.47
2019-04-06T03:09:22.234Z,13.00
2019-04-06T03:12:30.538Z,12.33
2019-04-06T03:15:39.177Z,11.83
2019-04-06T03:18:47.705Z,11.57
2019-04-06T03:21:55.089Z,12.27
2019-04-06T03:25:03.141Z,12.63
2019-04-06T03:28:12.891Z,12.63
2019-04-06T03:31:25.213Z,12.30
2019-04-06T03:34:29.983Z,12.23
2019-04-06T03:37:38.577Z,12.50
2019-04-06T03:40:45.947Z,12.53
2019-04-06T03:43:53.584Z,12.40
2019-04-06T03:47:00.786Z,12.60
2019-04-06T03:50:09.111Z,10.77
2019-04-06T03:53:16.621Z,12.50
2019-04-06T03:56:24.351Z,12.43
2019-04-06T03:59:31.780Z,12.57
2019-04-06T04:02:39.007Z,14.50
2019-04-06T04:05:46.186Z,13.00
2019-04-06T04:08:53.827Z,12.50
2019-04-06T04:12:01.732Z,12.30
2019-04-06T04:15:09.293Z,12.83
2019-04-06T04:18:16.480Z,13.57
2019-04-06T04:21:24.000Z,12.60
2019-04-06T04:24:31.768Z,13.07
2019-04-06T04:27:40.751Z,13.47
2019-04-06T04:30:48.457Z,13.03
2019-04-06T04:33:56.041Z,22.47
2019-04-06T04:37:03.859Z,13.60
2019-04-06T04:40:11.584Z,11.87
2019-04-06T04:43:19.156Z,13.03
2019-04-06T04:46:26.777Z,12.37
2019-04-06T04:49:34.853Z,14.10
2019-04-06T04:52:42.158Z,12.43
2019-04-06T04:55:50.617Z,13.20
2019-04-06T04:58:58.762Z,12.33
2019-04-06T05:02:06.688Z,13.70
2019-04-06T05:05:14.408Z,13.77
2019-04-06T05:08:21.722Z,13.27
2019-04-06T05:11:29.609Z,12.63
2019-04-06T05:14:58.582Z,12.93
2019-04-06T05:18:05.919Z,13.50
2019-04-06T05:21:13.588Z,14.60
2019-04-06T05:24:21.997Z,14.17
2019-04-06T05:27:29.553Z,13.40
2019-04-06T05:30:36.908Z,13.23
2019-04-06T05:33:44.695Z,13.63
2019-04-06T05:36:52.118Z,13.50
2019-04-06T05:39:59.600Z,13.70
2019-04-06T05:43:06.765Z,12.60
2019-04-06T05:46:14.089Z,13.60
2019-04-06T05:49:22.207Z,12.30
2019-04-06T05:52:30.769Z,13.83
2019-04-06T05:55:38.594Z,12.77
2019-04-06T05:58:46.817Z,14.13
2019-04-06T06:01:54.731Z,14.33
2019-04-06T06:05:02.729Z,12.70
2019-04-06T06:08:10.327Z,14.43
2019-04-06T06:11:18.354Z,14.03
2019-04-06T06:14:26.995Z,13.53
2019-04-06T06:17:34.951Z,13.50
2019-04-06T06:20:42.632Z,14.40
2019-04-06T06:23:50.204Z,15.13
2019-04-06T06:26:58.105Z,14.17
2019-04-06T06:30:06.761Z,14.80
2019-04-06T06:33:14.822Z,18.37
2019-04-06T06:36:22.331Z,25.90
2019-04-06T06:39:29.856Z,19.27
2019-04-06T06:42:37.334Z,17.47
2019-04-06T06:45:44.802Z,16.40
2019-04-06T06:48:53.457Z,15.87
2019-04-06T06:52:01.442Z,15.87
2019-04-06T06:55:09.248Z,18.17
2019-04-06T06:58:25.362Z,17.53
2019-04-06T07:01:27.334Z,17.90
2019-04-06T07:04:34.680Z,15.77
2019-04-06T07:07:42.022Z,18.27
2019-04-06T07:10:49.616Z,18.07
2019-04-06T07:13:58.276Z,18.67
2019-04-06T07:17:05.843Z,17.30
2019-04-06T07:20:13.899Z,18.73
2019-04-06T07:23:21.300Z,18.87
2019-04-06T07:26:29.091Z,17.83
2019-04-06T07:29:36.257Z,17.90
2019-04-06T07:32:43.887Z,17.23
2019-04-06T07:35:51.982Z,19.00
2019-04-06T07:38:59.658Z,17.90
2019-04-06T07:42:07.074Z,17.27
2019-04-06T07:45:14.694Z,17.77
2019-04-06T07:48:22.625Z,18.17
2019-04-06T07:51:30.067Z,17.93
2019-04-06T07:54:37.792Z,18.60
2019-04-06T07:57:45.273Z,20.50
2019-04-06T08:00:52.781Z,20.00
2019-04-06T08:04:00.209Z,20.10
2019-04-06T08:07:07.897Z,18.93
2019-04-06T08:10:15.933Z,19.93
2019-04-06T08:13:24.119Z,18.70
2019-04-06T08:16:32.692Z,20.17
2019-04-06T08:19:40.407Z,19.10
2019-04-06T08:22:48.547Z,18.10
2019-04-06T08:25:55.849Z,18.30
2019-04-06T08:29:03.596Z,18.10
2019-04-06T08:32:11.306Z,17.67
2019-04-06T08:35:25.110Z,17.90
2019-04-06T08:38:29.353Z,16.47
2019-04-06T08:41:37.182Z,17.60
2019-04-06T08:44:45.010Z,17.37
2019-04-06T08:47:52.767Z,18.20
2019-04-06T08:51:00.301Z,17.60
2019-04-06T08:54:07.549Z,15.73
2019-04-06T08:57:14.768Z,16.23
2019-04-06T09:00:22.253Z,16.93
2019-04-06T09:03:29.848Z,17.37
2019-04-06T09:06:37.033Z,18.23
2019-04-06T09:09:44.892Z,17.13
2019-04-06T09:12:52.587Z,18.23
2019-04-06T09:16:00.121Z,16.87
2019-04-06T09:19:07.503Z,17.97
2019-04-06T09:22:15.149Z,18.07
2019-04-06T09:25:22.535Z,18.47
2019-04-06T09:28:29.929Z,17.83
2019-04-06T09:31:37.137Z,16.80
2019-04-06T09:34:44.862Z,16.90
2019-04-06T09:37:52.242Z,17.00
2019-04-06T09:40:59.471Z,17.37
2019-04-06T09:44:11.180Z,16.60
2019-04-06T09:47:28.718Z,16.77
2019-04-06T09:51:11.057Z,16.30
2019-04-06T09:54:30.131Z,16.43
2019-04-06T09:57:48.399Z,15.70
2019-04-06T10:01:14.845Z,14.53
2019-04-06T10:04:47.557Z,14.27
2019-04-06T10:08:15.336Z,15.37
2019-04-06T10:11:31.536Z,13.60
2019-04-06T10:15:01.503Z,15.70
2019-04-06T10:18:24.572Z,14.07
2019-04-06T10:21:51.785Z,14.47
2019-04-06T10:25:10.977Z,15.17
2019-04-06T10:28:36.313Z,14.10
2019-04-06T10:32:08.762Z,14.33
2019-04-06T10:35:28.923Z,14.30
2019-04-06T10:39:04.808Z,16.27
2019-04-06T10:42:28.987Z,14.60
2019-04-06T10:45:47.028Z,14.77
2019-04-06T10:49:05.704Z,14.30
2019-04-06T10:52:23.944Z,13.67
2019-04-06T10:55:39.773Z,14.70
2019-04-06T10:59:08.339Z,14.00
2019-04-06T11:02:33.989Z,14.63
2019-04-06T11:05:55.591Z,13.00
2019-04-06T11:09:27.362Z,12.73
2019-04-06T11:12:53.219Z,12.67
2019-04-06T11:16:09.497Z,14.57
2019-04-06T11:19:25.794Z,13.93
2019-04-06T11:22:51.100Z,15.07
2019-04-06T11:26:21.157Z,14.50
2019-04-06T11:29:43.233Z,13.90
2019-04-06T11:33:09.003Z,13.30
2019-04-06T11:36:51.409Z,14.70
2019-04-06T11:40:17.062Z,10.87
2019-04-06T11:43:43.249Z,15.03
2019-04-06T11:46:57.688Z,12.80
2019-04-06T11:50:18.259Z,12.60
2019-04-06T11:53:51.294Z,12.50
2019-04-06T11:57:25.224Z,11.90
2019-04-06T12:00:50.954Z,13.90
2019-04-06T12:04:17.968Z,12.83
2019-04-06T12:07:35.638Z,13.17
2019-04-06T12:10:49.915Z,12.20
2019-04-06T12:14:15.601Z,12.90
2019-04-06T12:17:37.161Z,13.27
2019-04-06T12:21:13.139Z,11.93
2019-04-06T12:24:43.008Z,12.93
2019-04-06T12:28:12.625Z,11.13
2019-04-06T12:31:37.438Z,12.27
2019-04-06T12:34:53.314Z,12.53
2019-04-06T12:38:19.024Z,11.27
2019-04-06T12:41:40.445Z,12.50
2019-04-06T12:45:06.116Z,9.87
2019-04-06T12:48:32.054Z,10.27
2019-04-06T12:51:48.345Z,9.73
2019-04-06T12:55:18.708Z,10.43
2019-04-06T12:59:04.125Z,10.30
2019-04-06T13:02:28.023Z,8.83
2019-04-06T13:06:03.727Z,10.17
2019-04-06T13:09:22.238Z,10.33
2019-04-06T13:12:36.922Z,10.27
2019-04-06T13:16:02.948Z,10.27
2019-04-06T13:19:28.728Z,9.43
2019-04-06T13:22:54.419Z,9.07
2019-04-06T13:26:20.190Z,7.97
2019-04-06T13:29:33.854Z,7.43
2019-04-06T13:32:53.541Z,6.40
2019-04-06T13:36:20.279Z,5.73
2019-04-06T13:39:55.891Z,6.20
2019-04-06T13:43:15.142Z,5.40
2019-04-06T13:46:33.257Z,5.20
2019-04-06T13:50:03.125Z,4.80
2019-04-06T13:53:22.559Z,5.00
2019-04-06T13:56:55.172Z,6.00
2019-04-06T14:00:26.739Z,5.30
2019-04-06T14:04:05.816Z,6.37
2019-04-06T14:07:26.979Z,7.00
2019-04-06T14:11:02.244Z,6.10
2019-04-06T14:14:29.470Z,5.87
2019-04-06T14:17:56.674Z,6.10
2019-04-06T14:21:13.838Z,4.97
2019-04-06T14:24:34.114Z,6.20
2019-04-06T14:28:16.312Z,6.13
2019-04-06T14:31:41.686Z,6.43
2019-04-06T14:35:09.635Z,5.73
2019-04-06T14:38:39.301Z,5.63
2019-04-06T14:42:05.013Z,5.70
2019-04-06T14:45:23.536Z,5.47
2019-04-06T14:48:38.956Z,6.17
2019-04-06T14:52:18.659Z,6.83
2019-04-06T14:55:33.544Z,5.90
2019-04-06T14:58:59.072Z,5.53
2019-04-06T15:02:26.439Z,5.87
2019-04-06T15:05:52.902Z,5.83
2019-04-06T15:09:09.878Z,5.83
2019-04-06T15:12:43.282Z,5.27
2019-04-06T15:16:00.303Z,5.13
2019-04-06T15:19:26.121Z,4.90
2019-04-06T15:22:52.203Z,4.67
2019-04-06T15:26:10.833Z,4.83
2019-04-06T15:29:56.480Z,4.63
2019-04-06T15:33:22.817Z,5.13
2019-04-06T15:36:53.291Z,4.87
2019-04-06T15:40:19.493Z,4.57
2019-04-06T15:43:35.328Z,4.87
2019-04-06T15:47:03.345Z,4.33
2019-04-06T15:50:34.989Z,4.53
2019-04-06T15:54:05.546Z,4.93
2019-04-06T15:57:34.522Z,4.23
2019-04-06T16:01:02.051Z,4.63
2019-04-06T16:04:42.149Z,4.10
2019-04-06T16:08:18.674Z,3.97
2019-04-06T16:11:44.286Z,3.80
2019-04-06T16:15:09.002Z,3.13
2019-04-06T16:18:45.386Z,3.53
2019-04-06T16:21:59.589Z,3.37
2019-04-06T16:25:26.281Z,4.30
2019-04-06T16:28:59.073Z,3.60
2019-04-06T16:32:16.449Z,3.23
2019-04-06T16:35:32.184Z,3.17
2019-04-06T16:38:50.270Z,3.23
2019-04-06T16:42:09.303Z,3.07
2019-04-06T16:45:39.399Z,4.23
2019-04-06T16:48:57.099Z,2.93
2019-04-06T16:52:27.666Z,2.70
2019-04-06T16:55:46.678Z,3.00
2019-04-06T16:59:11.060Z,2.20
2019-04-06T17:02:30.758Z,2.90
2019-04-06T17:05:51.598Z,3.20
2019-04-06T17:09:22.062Z,3.13
2019-04-06T17:12:46.598Z,3.10
2019-04-06T17:16:11.261Z,3.60
2019-04-06T17:19:38.499Z,4.00
2019-04-06T17:22:54.990Z,4.47
2019-04-06T17:26:27.357Z,3.13
2019-04-06T17:29:55.324Z,3.50
2019-04-06T17:33:28.573Z,3.50
2019-04-06T17:36:49.333Z,3.10
2019-04-06T17:40:15.615Z,3.43
2019-04-06T17:43:41.576Z,3.10
2019-04-06T17:46:57.269Z,3.30
2019-04-06T17:50:33.724Z,3.77
2019-04-06T17:53:50.258Z,3.43
2019-04-06T17:57:11.653Z,3.27
2019-04-06T18:00:38.483Z,3.60
2019-04-06T18:04:04.535Z,3.80
2019-04-06T18:07:32.302Z,3.63
2019-04-06T18:11:09.107Z,3.03
2019-04-06T18:14:18.501Z,3.70
2019-04-06T18:17:26.629Z,3.27
2019-04-06T18:20:34.938Z,3.20
2019-04-06T18:23:42.749Z,3.43
2019-04-06T18:26:50.723Z,2.80
2019-04-06T18:29:59.995Z,2.80
2019-04-06T18:33:10.861Z,3.30
2019-04-06T18:36:20.679Z,3.50
2019-04-06T18:39:28.999Z,3.20
2019-04-06T18:42:37.382Z,3.37
2019-04-06T18:45:44.924Z,3.10
2019-04-06T18:48:52.901Z,2.90
2019-04-06T18:52:00.968Z,3.20
2019-04-06T18:55:08.764Z,2.80
2019-04-06T18:58:16.552Z,3.50
2019-04-06T19:01:24.293Z,2.83
2019-04-06T19:04:32.894Z,2.57
2019-04-06T19:07:40.798Z,3.30
2019-04-06T19:10:48.798Z,3.50
2019-04-06T19:13:56.629Z,3.50
2019-04-06T19:17:04.566Z,2.90
2019-04-06T19:20:12.910Z,3.00
2019-04-06T19:23:20.593Z,2.90
2019-04-06T19:26:28.805Z,3.03
2019-04-06T19:29:36.650Z,3.30
2019-04-06T19:32:44.205Z,3.47
2019-04-06T19:35:52.876Z,2.80
2019-04-06T19:39:00.631Z,3.43
2019-04-06T19:42:09.264Z,2.77
2019-04-06T19:45:17.035Z,2.60
2019-04-06T19:48:24.793Z,2.80
2019-04-06T19:51:33.148Z,2.83
2019-04-06T19:54:41.406Z,2.23
2019-04-06T19:57:48.852Z,2.80
2019-04-06T20:00:56.369Z,2.80
2019-04-06T20:04:04.636Z,2.63
2019-04-06T20:07:12.911Z,2.57
2019-04-06T20:10:20.282Z,2.60
2019-04-06T20:13:29.483Z,2.93
2019-04-06T20:16:38.459Z,2.20
2019-04-06T20:19:46.149Z,3.27
2019-04-06T20:22:53.912Z,2.27
2019-04-06T20:26:02.405Z,2.83
2019-04-06T20:29:10.460Z,3.17
2019-04-06T20:32:18.722Z,2.70
2019-04-06T20:35:26.737Z,2.70
2019-04-06T20:38:35.701Z,2.50
2019-04-06T20:41:43.843Z,2.93
2019-04-06T20:44:52.706Z,1.90
2019-04-06T20:48:00.202Z,2.23
2019-04-06T20:51:08.034Z,3.03
2019-04-06T20:57:25.667Z,2.97
2019-04-06T21:00:34.626Z,3.17
2019-04-06T21:03:42.807Z,3.23
2019-04-06T21:06:50.609Z,2.63
2019-04-06T21:09:58.472Z,2.77
2019-04-06T21:13:06.608Z,2.50
2019-04-06T21:16:15.172Z,2.47
2019-04-06T21:19:22.974Z,2.63
2019-04-06T21:22:30.680Z,2.93
2019-04-06T21:25:38.782Z,2.73
2019-04-06T21:28:46.566Z,2.30
2019-04-06T21:31:54.459Z,2.20
2019-04-06T21:35:05.465Z,2.43
2019-04-06T21:38:13.452Z,2.53
2019-04-06T21:41:20.819Z,2.70
2019-04-06T21:44:28.173Z,2.07
2019-04-06T21:47:36.145Z,2.57
2019-04-06T21:50:43.648Z,2.93
2019-04-06T21:53:51.719Z,2.37
2019-04-06T21:56:59.548Z,1.87
2019-04-06T22:00:08.879Z,2.50
2019-04-06T22:03:16.683Z,1.87
2019-04-06T22:06:25.766Z,2.13
2019-04-06T22:09:33.861Z,1.83
2019-04-06T22:12:41.648Z,2.07
2019-04-06T22:15:48.958Z,1.87
2019-04-06T22:18:56.498Z,1.83
2019-04-06T22:22:04.007Z,1.50
2019-04-06T22:25:12.156Z,1.53
2019-04-06T22:28:20.044Z,1.87
2019-04-06T22:31:27.810Z,2.00
2019-04-06T22:34:39.880Z,1.63
2019-04-06T22:37:44.983Z,1.90
2019-04-06T22:40:52.964Z,1.80
2019-04-06T22:44:00.757Z,1.90
2019-04-06T22:47:09.057Z,1.90
2019-04-06T22:50:16.579Z,2.50
2019-04-06T22:53:23.947Z,1.97
2019-04-06T22:56:31.500Z,3.20
2019-04-06T22:59:39.204Z,8.40
2019-04-06T23:02:57.457Z,8.67
2019-04-06T23:06:08.519Z,13.20
2019-04-06T23:09:16.570Z,8.63
2019-04-06T23:12:24.598Z,6.37
2019-04-06T23:15:32.647Z,4.67
2019-04-06T23:18:40.036Z,4.10
2019-04-06T23:21:47.572Z,3.23
2019-04-06T23:24:54.986Z,3.63
2019-04-06T23:28:02.384Z,4.70
2019-04-06T23:31:09.849Z,3.80
2019-04-06T23:34:18.020Z,2.63
2019-04-06T23:37:25.734Z,2.30
2019-04-06T23:40:33.760Z,2.03
2019-04-06T23:43:41.538Z,2.60
2019-04-06T23:46:48.809Z,2.93
2019-04-06T23:49:56.278Z,2.50
2019-04-06T23:53:04.239Z,2.90
2019-04-06T23:56:12.052Z,3.00
2019-04-06T23:59:19.994Z,2.87
